Time;durP1;ratioP1;P1;durP2;ratioP2;P2;SDS_P1;SDS_P2;PMS_P1;PMS_P2;Temp;Humidity;BMP_temperature;BMP_pressure;BME280_temperature;BME280_humidity;BME280_pressure;Samples;Min_cycle;Max_cycle;Signal;HPM_P1;HPM_P2
2023/05/11 00:01:35;;;;;;;22.17;10.33;;;14.00;99.90;;;;;;5095712;28;20284;-78
2023/05/11 00:04:02;;;;;;;17.47;9.07;;;14.10;99.90;;;;;;5102093;28;20207;-76
2023/05/11 00:06:29;;;;;;;21.03;9.07;;;14.10;99.90;;;;;;5098849;28;20215;-77
2023/05/11 00:08:55;;;;;;;16.87;8.63;;;14.10;99.90;;;;;;5101372;28;20388;-77
2023/05/11 00:11:22;;;;;;;17.20;9.07;;;14.10;99.90;;;;;;5126620;27;20204;-77
2023/05/11 00:13:49;;;;;;;17.33;8.43;;;14.00;99.90;;;;;;5111065;28;20206;-76
2023/05/11 00:16:16;;;;;;;18.73;8.20;;;14.00;99.90;;;;;;5128245;27;20553;-77
2023/05/11 00:18:43;;;;;;;19.93;8.80;;;14.00;99.90;;;;;;5101520;28;20310;-78
2023/05/11 00:21:09;;;;;;;16.77;8.60;;;14.00;99.90;;;;;;5098566;28;20203;-77
2023/05/11 00:23:36;;;;;;;20.67;8.77;;;13.90;99.90;;;;;;5103518;28;20218;-78
2023/05/11 00:26:03;;;;;;;20.37;9.53;;;14.00;99.90;;;;;;5104497;28;20563;-77
2023/05/11 00:28:30;;;;;;;21.73;9.40;;;13.90;99.90;;;;;;5098583;28;20948;-79
2023/05/11 00:30:57;;;;;;;15.97;8.67;;;13.90;99.90;;;;;;5104675;28;20224;-77
2023/05/11 00:33:24;;;;;;;19.00;8.50;;;14.00;99.90;;;;;;5094069;28;20200;-79
2023/05/11 00:35:51;;;;;;;20.10;9.13;;;14.00;99.90;;;;;;5108229;28;20646;-78
2023/05/11 00:38:19;;;;;;;18.60;9.10;;;14.00;99.90;;;;;;5105523;28;20219;-78
2023/05/11 00:40:48;;;;;;;18.97;9.13;;;14.00;99.90;;;;;;5108425;28;20218;-78
2023/05/11 00:43:15;;;;;;;16.57;8.77;;;14.00;99.90;;;;;;5106335;28;20211;-78
2023/05/11 00:45:43;;;;;;;21.43;9.93;;;14.00;99.90;;;;;;5100580;28;20280;-78
2023/05/11 00:48:10;;;;;;;18.20;9.00;;;14.00;99.90;;;;;;5108694;28;20211;-78
2023/05/11 00:50:37;;;;;;;16.23;8.63;;;14.00;99.90;;;;;;5110786;28;20207;-77
2023/05/11 00:53:03;;;;;;;18.60;9.23;;;14.00;99.90;;;;;;5107792;28;20290;-77
2023/05/11 00:55:30;;;;;;;18.37;9.13;;;14.00;99.90;;;;;;5099827;28;20290;-78
2023/05/11 00:57:57;;;;;;;19.43;9.33;;;14.00;99.90;;;;;;5097311;28;20576;-79
2023/05/11 01:00:24;;;;;;;16.20;9.33;;;14.00;99.90;;;;;;5101337;28;20769;-78
2023/05/11 01:02:52;;;;;;;19.73;9.37;;;14.00;99.90;;;;;;5103722;28;20238;-78
2023/05/11 01:05:19;;;;;;;21.73;9.00;;;14.00;99.90;;;;;;5101742;28;20495;-78
2023/05/11 01:07:57;;;;;;;17.43;9.43;;;14.00;99.90;;;;;;5101916;28;20322;-78
2023/05/11 01:10:40;;;;;;;18.13;8.60;;;14.00;99.90;;;;;;5099151;28;20252;-78
2023/05/11 01:13:21;;;;;;;18.30;9.10;;;14.00;99.90;;;;;;5100677;28;20197;-78
2023/05/11 01:15:55;;;;;;;20.33;8.80;;;14.00;99.90;;;;;;5101580;28;20310;-78
2023/05/11 01:18:32;;;;;;;17.67;9.27;;;14.00;99.90;;;;;;5101093;28;20238;-78
2023/05/11 01:21:00;;;;;;;17.07;8.63;;;13.90;99.90;;;;;;5093932;28;20294;-77
2023/05/11 01:23:42;;;;;;;17.97;8.97;;;13.90;99.90;;;;;;5104074;28;20238;-78
2023/05/11 01:26:25;;;;;;;22.00;9.13;;;13.90;99.90;;;;;;5093241;28;20652;-79
2023/05/11 01:29:21;;;;;;;20.37;8.90;;;13.90;99.90;;;;;;5101677;28;20207;-78
2023/05/11 01:31:49;;;;;;;21.33;8.93;;;13.90;99.90;;;;;;5102364;28;20293;-80
2023/05/11 01:34:23;;;;;;;20.37;9.17;;;13.90;99.90;;;;;;5103663;28;20269;-79
2023/05/11 01:36:59;;;;;;;20.53;8.97;;;13.80;99.90;;;;;;5097163;28;20558;-78
2023/05/11 01:39:37;;;;;;;19.77;9.33;;;13.80;99.90;;;;;;5099613;28;20766;-78
2023/05/11 01:42:08;;;;;;;17.53;8.77;;;13.80;99.90;;;;;;5100373;28;20635;-79
2023/05/11 01:44:41;;;;;;;21.60;8.77;;;13.70;99.90;;;;;;5097055;28;20227;-79
2023/05/11 01:47:10;;;;;;;21.00;9.70;;;13.70;99.90;;;;;;5103240;28;20200;-80
2023/05/11 01:49:39;;;;;;;19.97;8.57;;;13.70;99.90;;;;;;5089102;28;20210;-79
2023/05/11 01:52:08;;;;;;;19.53;9.57;;;13.60;99.90;;;;;;5078110;28;20291;-79
2023/05/11 01:54:37;;;;;;;26.50;10.30;;;13.60;99.90;;;;;;5108728;28;20663;-79
2023/05/11 01:57:04;;;;;;;20.73;9.63;;;13.60;99.90;;;;;;5095895;28;20239;-79
2023/05/11 01:59:32;;;;;;;23.73;10.07;;;13.60;99.90;;;;;;5105652;28;20230;-79
2023/05/11 02:02:01;;;;;;;23.20;10.23;;;13.50;99.90;;;;;;5103103;28;20563;-78
2023/05/11 02:04:29;;;;;;;23.93;10.13;;;13.50;99.90;;;;;;5103309;28;20227;-78
2023/05/11 02:06:58;;;;;;;26.37;9.83;;;13.50;99.90;;;;;;5099535;28;20291;-78
2023/05/11 02:09:26;;;;;;;20.90;9.87;;;13.50;99.90;;;;;;5118289;27;20317;-78
2023/05/11 02:11:56;;;;;;;25.33;10.80;;;13.50;99.90;;;;;;5130140;27;20206;-78
2023/05/11 02:14:24;;;;;;;23.17;10.83;;;13.50;99.90;;;;;;5104878;28;20254;-78
2023/05/11 02:16:52;;;;;;;22.50;10.80;;;13.40;99.90;;;;;;5102716;27;20325;-77
2023/05/11 02:19:20;;;;;;;23.43;10.57;;;13.40;99.90;;;;;;5118884;27;20273;-78
2023/05/11 02:21:48;;;;;;;24.87;10.07;;;13.40;99.90;;;;;;5121707;27;20624;-78
2023/05/11 02:24:16;;;;;;;21.57;10.27;;;13.40;99.90;;;;;;5098846;28;20234;-79
2023/05/11 02:26:43;;;;;;;29.17;10.37;;;13.40;99.90;;;;;;5104300;27;20285;-79
2023/05/11 02:29:10;;;;;;;23.77;9.97;;;13.40;99.90;;;;;;5119419;27;20219;-78
2023/05/11 02:31:43;;;;;;;26.27;10.20;;;13.50;99.90;;;;;;5122129;27;20268;-78
2023/05/11 02:34:19;;;;;;;24.60;10.57;;;13.40;99.90;;;;;;5120462;27;20618;-79
2023/05/11 02:39:37;;;;;;;25.87;10.43;;;13.50;99.90;;;;;;3152332;26;20929;-87
2023/05/11 02:42:25;;;;;;;21.93;10.10;;;13.50;99.90;;;;;;5028592;28;20338;-88
2023/05/11 02:45:01;;;;;;;23.80;10.20;;;13.60;99.90;;;;;;5043452;28;20213;-87
2023/05/11 02:47:36;;;;;;;22.30;10.23;;;13.40;99.90;;;;;;5035045;28;20209;-89
2023/05/11 02:50:06;;;;;;;26.47;10.80;;;13.50;99.90;;;;;;5038799;28;20213;-88
2023/05/11 02:52:37;;;;;;;22.03;10.10;;;13.50;99.90;;;;;;5038353;28;20209;-87
2023/05/11 02:55:05;;;;;;;22.30;9.63;;;13.50;99.90;;;;;;5038296;28;20770;-87
2023/05/11 02:57:33;;;;;;;27.97;10.93;;;13.50;99.90;;;;;;5035598;28;20217;-88
2023/05/11 03:00:12;;;;;;;27.63;11.40;;;13.50;99.90;;;;;;5037668;28;20225;-89
2023/05/11 03:02:44;;;;;;;25.63;10.80;;;13.50;99.90;;;;;;5039677;28;20220;-86
2023/05/11 03:05:12;;;;;;;25.37;10.50;;;13.60;99.90;;;;;;5042193;28;20233;-86
2023/05/11 03:07:43;;;;;;;25.43;10.50;;;13.50;99.90;;;;;;5068265;28;20201;-86
2023/05/11 03:10:11;;;;;;;26.07;11.17;;;13.50;99.90;;;;;;5049505;28;20217;-86
2023/05/11 03:12:39;;;;;;;24.30;10.80;;;13.40;99.90;;;;;;5066257;28;20303;-87
2023/05/11 03:15:11;;;;;;;30.93;10.90;;;13.40;99.90;;;;;;5056279;28;20220;-87
2023/05/11 03:17:39;;;;;;;25.10;10.00;;;13.40;99.90;;;;;;5056179;28;20299;-89
2023/05/11 03:20:08;;;;;;;29.47;11.50;;;13.40;99.90;;;;;;5058280;28;20244;-87
2023/05/11 03:22:36;;;;;;;30.47;12.43;;;13.30;99.90;;;;;;5074101;28;20197;-88
2023/05/11 03:25:06;;;;;;;27.80;12.03;;;13.30;99.90;;;;;;5051399;28;20268;-87
2023/05/11 03:27:34;;;;;;;31.10;12.40;;;13.30;99.90;;;;;;5065066;28;20217;-87
2023/05/11 03:30:13;;;;;;;27.40;11.17;;;13.30;99.90;;;;;;5044609;28;20205;-87
2023/05/11 03:33:06;;;;;;;33.30;12.03;;;13.30;99.90;;;;;;5045858;28;20208;-86
2023/05/11 03:36:10;;;;;;;29.17;11.07;;;13.40;99.90;;;;;;5057128;28;20205;-85
2023/05/11 03:38:39;;;;;;;29.90;12.07;;;13.30;99.90;;;;;;5036081;28;20252;-86
2023/05/11 03:41:10;;;;;;;28.43;10.97;;;13.40;99.90;;;;;;5060390;28;20193;-87
2023/05/11 03:44:05;;;;;;;28.63;11.23;;;13.30;99.90;;;;;;5054309;28;20280;-87
2023/05/11 03:46:34;;;;;;;30.27;12.00;;;13.40;99.90;;;;;;5051508;28;20264;-88
2023/05/11 03:49:07;;;;;;;29.20;11.33;;;13.40;99.90;;;;;;5028095;28;20563;-88
2023/05/11 03:51:41;;;;;;;30.63;12.37;;;13.40;99.90;;;;;;5044831;28;20685;-89
2023/05/11 03:54:12;;;;;;;33.43;12.63;;;13.40;99.90;;;;;;5046239;28;20231;-88
2023/05/11 03:56:41;;;;;;;23.80;11.27;;;13.40;99.90;;;;;;5050912;28;20200;-87
2023/05/11 03:59:15;;;;;;;30.73;11.53;;;13.30;99.90;;;;;;5050530;28;20232;-90
2023/05/11 04:01:43;;;;;;;29.57;12.37;;;13.40;99.90;;;;;;5043316;28;20570;-90
2023/05/11 04:04:10;;;;;;;33.87;12.07;;;13.40;99.90;;;;;;5039882;28;20622;-88
2023/05/11 04:06:50;;;;;;;30.67;12.40;;;13.40;99.90;;;;;;5043700;28;20238;-90
2023/05/11 04:09:21;;;;;;;28.97;11.83;;;13.40;99.90;;;;;;5042035;28;20698;-89
2023/05/11 04:11:58;;;;;;;29.47;13.10;;;13.40;99.90;;;;;;5039257;28;20204;-91
2023/05/11 04:14:34;;;;;;;30.50;12.00;;;13.40;99.90;;;;;;5053024;28;20221;-90
2023/05/11 04:17:05;;;;;;;35.70;13.33;;;13.30;99.90;;;;;;5050029;28;20224;-90
2023/05/11 04:19:35;;;;;;;33.80;12.50;;;13.40;99.90;;;;;;5042432;28;20887;-90
2023/05/11 04:22:07;;;;;;;26.20;11.43;;;13.40;99.90;;;;;;5034337;28;20206;-90
2023/05/11 04:24:53;;;;;;;28.13;11.03;;;13.40;99.90;;;;;;5038804;28;20314;-89
2023/05/11 04:27:21;;;;;;;24.20;11.00;;;13.40;99.90;;;;;;5028370;28;20213;-90
2023/05/11 04:29:53;;;;;;;25.07;11.27;;;13.50;99.90;;;;;;5046868;28;20294;-91
2023/05/11 04:32:21;;;;;;;24.67;10.50;;;13.30;99.90;;;;;;5040621;28;20296;-88
2023/05/11 04:34:48;;;;;;;29.17;11.03;;;13.60;99.90;;;;;;5048265;28;20210;-90
2023/05/11 04:37:19;;;;;;;25.13;10.13;;;13.40;99.90;;;;;;5020271;28;20281;-89
2023/05/11 04:40:02;;;;;;;30.77;11.60;;;13.40;99.90;;;;;;5036195;28;20802;-91
2023/05/11 04:42:34;;;;;;;27.70;10.40;;;13.40;99.90;;;;;;5064217;28;20242;-89
2023/05/11 04:45:04;;;;;;;28.00;10.87;;;13.40;99.90;;;;;;5046036;28;20202;-89
2023/05/11 04:47:34;;;;;;;25.37;10.90;;;13.40;99.90;;;;;;5056308;28;20209;-90
2023/05/11 04:50:02;;;;;;;33.40;12.90;;;13.40;99.90;;;;;;5034628;28;20209;-88
2023/05/11 04:52:33;;;;;;;33.97;13.33;;;13.40;99.90;;;;;;5038749;28;20205;-88
2023/05/11 04:55:24;;;;;;;31.53;13.20;;;13.40;99.90;;;;;;5036629;28;20213;-91
2023/05/11 04:58:13;;;;;;;35.27;14.53;;;13.30;99.90;;;;;;5039576;28;20939;-90
2023/05/11 05:00:51;;;;;;;30.23;14.10;;;13.30;99.90;;;;;;5032197;28;20217;-90
2023/05/11 05:03:26;;;;;;;35.43;13.77;;;13.40;99.90;;;;;;5038298;28;20215;-91
2023/05/11 05:05:55;;;;;;;35.00;14.83;;;13.40;99.90;;;;;;5036839;28;20232;-88
2023/05/11 05:08:23;;;;;;;37.43;14.03;;;13.40;99.90;;;;;;5060274;28;20224;-88
2023/05/11 05:10:59;;;;;;;34.40;14.40;;;13.40;99.90;;;;;;5035019;28;20206;-87
2023/05/11 05:13:27;;;;;;;36.73;15.03;;;13.60;99.90;;;;;;5038926;28;20220;-92
2023/05/11 05:15:58;;;;;;;38.80;15.03;;;13.50;99.90;;;;;;5035902;28;20626;-85
2023/05/11 05:18:26;;;;;;;39.20;14.33;;;13.60;99.90;;;;;;5048467;28;20209;-88
2023/05/11 05:20:55;;;;;;;31.97;13.87;;;13.60;99.90;;;;;;5035752;28;20209;-87
2023/05/11 05:23:54;;;;;;;30.87;13.43;;;13.70;99.90;;;;;;5034158;28;20989;-88
2023/05/11 05:26:34;;;;;;;35.63;14.53;;;13.70;99.90;;;;;;5032365;28;20216;-86
2023/05/11 05:29:02;;;;;;;31.50;12.73;;;13.60;99.90;;;;;;5045194;28;20279;-89
2023/05/11 05:31:34;;;;;;;33.60;13.60;;;13.60;99.90;;;;;;5038969;28;20220;-87
2023/05/11 05:34:01;;;;;;;37.77;13.90;;;13.60;99.90;;;;;;5039281;28;20311;-89
2023/05/11 05:36:30;;;;;;;36.53;14.63;;;13.50;99.90;;;;;;5038751;28;20670;-93
2023/05/11 05:39:08;;;;;;;36.17;13.67;;;13.60;99.90;;;;;;5034451;28;20233;-87
2023/05/11 05:41:35;;;;;;;28.13;12.07;;;13.60;99.90;;;;;;5029761;28;20697;-86
2023/05/11 05:44:03;;;;;;;27.03;11.30;;;13.60;99.90;;;;;;5040786;28;20247;-89
2023/05/11 05:46:34;;;;;;;29.43;12.73;;;13.70;99.90;;;;;;5028819;28;20603;-86
2023/05/11 05:49:04;;;;;;;34.57;12.17;;;13.80;99.90;;;;;;5045252;28;20259;-91
2023/05/11 05:51:36;;;;;;;26.40;12.00;;;13.80;99.90;;;;;;5034846;28;20244;-87
2023/05/11 05:54:03;;;;;;;27.17;11.10;;;13.90;99.90;;;;;;5035538;28;20206;-87
2023/05/11 05:56:33;;;;;;;28.50;12.80;;;13.90;99.90;;;;;;5050747;28;20308;-85
2023/05/11 05:59:01;;;;;;;31.43;13.10;;;13.90;99.90;;;;;;5051973;28;20237;-84
2023/05/11 06:01:31;;;;;;;28.77;12.73;;;13.90;99.90;;;;;;5048847;28;20258;-87
2023/05/11 06:04:02;;;;;;;26.53;11.37;;;14.00;99.90;;;;;;5033546;28;20206;-87
2023/05/11 06:06:33;;;;;;;27.23;12.13;;;14.00;99.90;;;;;;5050106;28;20213;-90
2023/05/11 06:09:07;;;;;;;33.33;12.47;;;14.00;99.90;;;;;;5036976;28;20227;-87
2023/05/11 06:11:40;;;;;;;26.10;12.30;;;14.20;99.90;;;;;;5034149;28;20345;-87
2023/05/11 06:14:09;;;;;;;25.73;11.70;;;14.20;99.90;;;;;;5045294;28;20228;-88
2023/05/11 06:16:53;;;;;;;;;;;;;;;;;;;;;
2023/05/11 06:20:03;;;;;;;19.10;10.80;;;14.30;99.90;;;;;;5049998;28;20240;-92
2023/05/11 06:23:25;;;;;;;23.77;10.93;;;14.30;99.90;;;;;;4983238;28;20222;-93
2023/05/11 06:30:54;;;;;;;;;;;;;;;;;;;;;
2023/05/11 06:33:52;;;;;;;;;;;;;;;;;;;;;
2023/05/11 06:37:20;;;;;;;;;;;;;;;;;;;;;
2023/05/11 06:40:30;;;;;;;24.97;11.90;;;14.40;99.90;;;;;;4989337;28;20286;-93
2023/05/11 06:43:17;;;;;;;22.50;11.27;;;14.40;99.90;;;;;;4993594;28;20202;-93
2023/05/11 06:46:51;;;;;;;19.90;10.33;;;14.50;99.90;;;;;;4997306;28;20223;-95
2023/05/11 06:50:22;;;;;;;18.53;11.10;;;14.60;99.90;;;;;;4948622;29;20211;-92
2023/05/11 06:54:11;;;;;;;20.77;11.03;;;14.60;99.90;;;;;;4965774;28;20225;-94
2023/05/11 06:57:37;;;;;;;;;;;;;;;;;;;;;
2023/05/11 07:01:03;;;;;;;;;;;;;;;;;;;;;
2023/05/11 07:04:01;;;;;;;22.03;11.60;;;14.70;99.90;;;;;;4956758;28;20210;-95
2023/05/11 07:06:53;;;;;;;21.30;10.50;;;14.70;99.90;;;;;;4974464;28;21078;-94
2023/05/11 07:13:31;;;;;;;22.17;11.43;;;14.70;99.90;;;;;;4978728;28;21169;-95
2023/05/11 07:16:05;;;;;;;21.50;11.53;;;14.80;99.90;;;;;;4978204;28;20311;-87
2023/05/11 07:26:08;;;;;;;24.60;12.73;;;14.80;99.90;;;;;;5078258;23;20243;-76
2023/05/11 07:28:35;;;;;;;23.23;11.80;;;14.80;99.90;;;;;;5047982;28;20300;-76
2023/05/11 07:31:03;;;;;;;18.17;9.80;;;15.00;99.90;;;;;;5031058;28;20217;-75
2023/05/11 07:33:29;;;;;;;20.10;10.50;;;15.20;99.90;;;;;;5048342;28;20653;-76
2023/05/11 07:35:56;;;;;;;18.90;10.83;;;15.30;99.90;;;;;;5046424;28;20714;-77
2023/05/11 07:38:23;;;;;;;21.27;11.50;;;15.30;99.90;;;;;;5048764;28;20291;-76
2023/05/11 07:40:50;;;;;;;20.20;10.93;;;15.40;99.90;;;;;;5044600;28;20229;-77
2023/05/11 07:43:16;;;;;;;20.55;11.13;;;15.40;99.90;;;;;;5044826;28;20303;-77
2023/05/11 07:45:44;;;;;;;18.17;9.20;;;15.50;99.90;;;;;;5048873;28;20688;-76
2023/05/11 07:48:11;;;;;;;17.05;9.30;;;15.60;99.90;;;;;;5048207;28;20362;-76
2023/05/11 07:50:37;;;;;;;19.10;9.93;;;15.60;99.90;;;;;;5048708;28;20617;-78
2023/05/11 07:53:04;;;;;;;17.77;9.80;;;15.60;99.90;;;;;;5048902;28;20659;-76
2023/05/11 07:55:32;;;;;;;14.00;8.63;;;15.70;99.90;;;;;;5048617;28;20703;-77
2023/05/11 07:57:58;;;;;;;14.38;8.25;;;15.80;99.90;;;;;;5046490;28;20240;-76
2023/05/11 08:00:25;;;;;;;13.90;7.85;;;15.80;99.90;;;;;;5046086;28;20355;-76
2023/05/11 08:02:52;;;;;;;15.23;9.13;;;15.90;99.90;;;;;;5049591;28;20235;-76
2023/05/11 08:05:19;;;;;;;13.20;7.40;;;16.00;99.90;;;;;;5047911;28;20222;-76
2023/05/11 08:07:47;;;;;;;11.13;7.30;;;16.10;99.90;;;;;;5049512;28;20598;-77
2023/05/11 08:10:13;;;;;;;11.38;6.72;;;16.20;99.90;;;;;;5048855;28;20641;-75
2023/05/11 08:12:40;;;;;;;11.02;7.10;;;16.20;99.90;;;;;;5048932;28;20303;-76
2023/05/11 08:15:07;;;;;;;10.25;6.70;;;16.20;99.90;;;;;;5048964;28;20310;-76
2023/05/11 08:17:35;;;;;;;11.55;7.50;;;16.20;99.90;;;;;;5040933;28;20336;-75
2023/05/11 08:20:05;;;;;;;9.77;6.45;;;16.20;99.90;;;;;;5042723;28;20249;-75
2023/05/11 08:22:32;;;;;;;9.65;6.43;;;16.30;99.90;;;;;;5043529;28;20197;-76
2023/05/11 08:24:59;;;;;;;10.00;6.35;;;16.30;99.90;;;;;;5044641;28;20231;-76
2023/05/11 08:27:25;;;;;;;10.25;6.28;;;16.40;99.90;;;;;;5045495;28;20202;-75
2023/05/11 08:29:53;;;;;;;9.05;5.63;;;16.50;99.90;;;;;;5051520;28;20232;-76
2023/05/11 08:32:20;;;;;;;10.27;5.97;;;16.60;99.90;;;;;;5051004;28;20193;-75
2023/05/11 08:34:47;;;;;;;9.65;5.95;;;16.80;99.90;;;;;;5052816;28;20609;-76
2023/05/11 08:37:14;;;;;;;9.75;5.93;;;16.90;99.90;;;;;;5045719;28;20198;-76
2023/05/11 08:39:40;;;;;;;8.18;5.13;;;17.10;99.90;;;;;;5052338;28;20225;-74
2023/05/11 08:42:13;;;;;;;8.73;5.43;;;17.40;99.90;;;;;;5052271;28;20208;-74
2023/05/11 08:44:42;;;;;;;9.35;5.65;;;17.70;99.90;;;;;;5051986;28;20227;-77
2023/05/11 08:47:10;;;;;;;7.50;4.90;;;18.20;99.90;;;;;;5041233;28;20248;-77
2023/05/11 08:49:40;;;;;;;7.20;4.13;;;18.80;99.90;;;;;;5052503;28;20201;-77
2023/05/11 08:52:07;;;;;;;5.72;4.13;;;19.40;99.90;;;;;;5050012;28;20193;-77
2023/05/11 08:54:34;;;;;;;6.00;4.03;;;19.50;99.90;;;;;;5052177;28;20201;-77
2023/05/11 08:57:01;;;;;;;7.38;4.15;;;19.80;99.90;;;;;;5051422;28;20225;-77
2023/05/11 08:59:28;;;;;;;3.53;2.58;;;20.00;99.90;;;;;;5044373;28;20233;-77
2023/05/11 09:01:58;;;;;;;4.35;3.13;;;20.00;99.90;;;;;;5043884;28;20198;-77
2023/05/11 09:04:26;;;;;;;4.65;3.33;;;20.00;99.90;;;;;;5047825;28;20287;-77
2023/05/11 09:06:53;;;;;;;4.47;3.17;;;19.90;99.90;;;;;;5050206;28;20293;-77
2023/05/11 09:09:20;;;;;;;5.00;3.17;;;19.80;99.90;;;;;;5048915;28;20224;-77
2023/05/11 09:11:47;;;;;;;4.75;3.25;;;19.70;99.90;;;;;;5046221;28;20207;-77
2023/05/11 09:14:14;;;;;;;3.58;2.55;;;19.70;99.90;;;;;;5026468;28;20582;-77
2023/05/11 09:16:41;;;;;;;3.42;2.25;;;19.60;99.90;;;;;;5050782;28;20323;-78
2023/05/11 09:19:14;;;;;;;2.97;2.05;;;19.60;99.90;;;;;;5050332;28;20645;-76
2023/05/11 09:21:41;;;;;;;2.20;1.80;;;19.70;99.90;;;;;;5052546;28;20510;-76
2023/05/11 09:24:11;;;;;;;2.53;1.70;;;19.80;99.90;;;;;;5051127;28;20205;-77
2023/05/11 09:26:39;;;;;;;2.55;2.13;;;19.90;99.90;;;;;;5046654;28;20470;-76
2023/05/11 09:29:05;;;;;;;2.30;1.50;;;19.90;99.90;;;;;;5050778;28;20379;-78
2023/05/11 09:31:43;;;;;;;1.50;1.17;;;20.00;99.90;;;;;;5051027;28;20201;-78
2023/05/11 09:34:20;;;;;;;1.10;1.00;;;20.10;99.90;;;;;;5050044;28;20657;-78
2023/05/11 09:36:51;;;;;;;2.00;1.38;;;20.20;99.90;;;;;;5031531;28;20197;-78
2023/05/11 09:39:33;;;;;;;2.47;1.45;;;20.30;99.90;;;;;;5050332;28;20232;-78
2023/05/11 09:42:20;;;;;;;2.05;1.63;;;20.40;99.90;;;;;;5049577;28;20229;-78
2023/05/11 09:44:47;;;;;;;2.10;1.50;;;20.60;99.90;;;;;;5033467;28;20227;-78
2023/05/11 09:47:20;;;;;;;1.80;1.52;;;20.80;99.90;;;;;;5046753;28;20206;-77
2023/05/11 09:49:47;;;;;;;2.53;1.55;;;20.90;99.90;;;;;;5049535;28;20221;-77
2023/05/11 09:52:17;;;;;;;1.92;1.80;;;20.80;99.90;;;;;;5050401;28;20673;-76
2023/05/11 09:54:47;;;;;;;2.10;1.77;;;20.80;99.90;;;;;;5051824;28;20270;-76
2023/05/11 09:57:21;;;;;;;2.35;1.83;;;21.00;99.90;;;;;;5048179;28;20225;-78
2023/05/11 09:59:49;;;;;;;1.95;1.70;;;21.00;99.90;;;;;;5047643;28;20229;-77
2023/05/11 10:02:28;;;;;;;1.70;1.60;;;21.10;99.90;;;;;;5050073;28;20299;-77
2023/05/11 10:05:00;;;;;;;1.67;1.58;;;21.10;99.90;;;;;;5048375;28;20240;-78
2023/05/11 10:07:34;;;;;;;1.70;1.55;;;21.30;99.90;;;;;;5050176;28;20588;-77
2023/05/11 10:10:04;;;;;;;1.88;1.77;;;21.40;99.90;;;;;;5052942;28;20212;-78
2023/05/11 10:12:32;;;;;;;1.60;1.50;;;21.20;99.90;;;;;;5047934;28;20305;-79
2023/05/11 10:15:07;;;;;;;1.70;1.33;;;21.00;99.90;;;;;;5046324;28;20308;-78
2023/05/11 10:17:35;;;;;;;1.85;1.23;;;21.00;99.90;;;;;;5052775;28;20295;-79
2023/05/11 10:20:04;;;;;;;1.63;1.40;;;21.10;99.90;;;;;;5049955;28;20701;-80
2023/05/11 10:22:31;;;;;;;3.20;1.30;;;21.20;99.90;;;;;;5049878;28;20303;-77
2023/05/11 10:24:59;;;;;;;1.48;1.30;;;21.10;99.90;;;;;;5036315;28;20335;-77
2023/05/11 10:27:26;;;;;;;1.40;1.30;;;21.10;99.90;;;;;;5050062;28;20209;-78
2023/05/11 10:29:53;;;;;;;1.52;1.30;;;21.00;99.90;;;;;;5049708;28;20755;-78
2023/05/11 10:32:20;;;;;;;1.73;1.40;;;21.00;99.90;;;;;;5048614;28;20256;-79
2023/05/11 10:34:49;;;;;;;1.52;1.20;;;21.10;99.90;;;;;;5049490;28;20209;-78
2023/05/11 10:37:16;;;;;;;1.63;1.20;;;21.20;99.90;;;;;;5049121;28;20267;-78
2023/05/11 10:39:45;;;;;;;1.30;1.20;;;21.40;99.90;;;;;;5032407;28;20635;-78
2023/05/11 10:42:32;;;;;;;1.33;1.00;;;21.40;99.90;;;;;;5049342;28;20209;-79
2023/05/11 10:45:20;;;;;;;1.13;1.02;;;21.50;99.90;;;;;;5046310;28;21431;-79
2023/05/11 10:48:18;;;;;;;1.58;1.25;;;21.60;99.90;;;;;;5043282;28;20550;-79
2023/05/11 10:51:00;;;;;;;1.23;1.00;;;21.70;99.90;;;;;;5026766;28;20205;-78
2023/05/11 10:53:52;;;;;;;0.82;0.70;;;21.60;99.90;;;;;;5046364;28;20260;-79
2023/05/11 10:56:37;;;;;;;0.70;0.60;;;21.60;99.90;;;;;;5045484;28;20254;-80
2023/05/11 10:59:21;;;;;;;1.80;1.00;;;21.70;99.90;;;;;;5047805;28;20254;-79
2023/05/11 11:01:57;;;;;;;1.05;0.90;;;21.90;99.90;;;;;;5046070;28;20769;-80
2023/05/11 11:04:24;;;;;;;1.42;1.10;;;22.00;99.90;;;;;;5045356;28;20677;-79
2023/05/11 11:07:04;;;;;;;2.67;0.90;;;22.00;99.90;;;;;;5048032;28;20219;-79
2023/05/11 11:10:00;;;;;;;1.02;0.82;;;22.00;99.90;;;;;;5049862;28;20294;-80
2023/05/11 11:12:28;;;;;;;1.00;0.85;;;22.00;99.90;;;;;;5047796;28;20288;-81
2023/05/11 11:15:05;;;;;;;1.30;0.90;;;22.00;99.90;;;;;;5049656;28;20753;-79
2023/05/11 11:17:34;;;;;;;1.17;0.98;;;22.00;99.90;;;;;;5049093;28;20209;-78
2023/05/11 11:20:03;;;;;;;0.80;0.80;;;21.90;99.90;;;;;;5050434;28;20201;-78
2023/05/11 11:22:40;;;;;;;1.23;0.90;;;21.80;99.90;;;;;;5049592;28;20565;-78
2023/05/11 11:25:08;;;;;;;0.90;0.70;;;21.90;99.90;;;;;;5049560;28;20324;-78
2023/05/11 11:27:44;;;;;;;0.73;0.68;;;21.80;99.90;;;;;;5045722;28;20209;-79
2023/05/11 11:30:20;;;;;;;1.38;1.05;;;21.90;99.90;;;;;;5049977;28;20653;-78
2023/05/11 11:32:52;;;;;;;1.00;0.90;;;22.00;99.90;;;;;;5045921;28;20816;-77
2023/05/11 11:35:38;;;;;;;2.67;0.82;;;22.00;99.90;;;;;;5047393;28;20201;-78
2023/05/11 11:38:10;;;;;;;0.98;0.77;;;22.10;99.90;;;;;;5043260;28;20224;-78
2023/05/11 11:40:42;;;;;;;1.35;0.70;;;22.20;99.90;;;;;;5045596;28;20302;-78
2023/05/11 11:43:20;;;;;;;0.60;0.60;;;22.30;99.90;;;;;;5049400;28;20204;-78
2023/05/11 11:45:52;;;;;;;0.55;0.50;;;22.30;99.90;;;;;;5049437;28;20247;-79
2023/05/11 11:48:28;;;;;;;0.50;0.45;;;22.30;99.90;;;;;;5043638;28;20546;-78
2023/05/11 11:51:07;;;;;;;0.60;0.60;;;22.30;99.90;;;;;;5049076;28;20470;-76
2023/05/11 11:53:39;;;;;;;0.50;0.50;;;22.70;99.90;;;;;;5054474;28;20665;-81
2023/05/11 11:56:07;;;;;;;1.00;0.50;;;22.60;99.90;;;;;;5048250;28;20224;-78
2023/05/11 11:58:40;;;;;;;0.47;0.40;;;22.60;99.90;;;;;;5053523;28;20770;-78
2023/05/11 12:01:09;;;;;;;0.60;0.60;;;22.80;99.90;;;;;;5055344;28;20228;-77
2023/05/11 12:03:36;;;;;;;0.70;0.40;;;22.90;99.90;;;;;;5058561;28;20506;-77
2023/05/11 12:06:08;;;;;;;2.10;0.52;;;23.00;99.90;;;;;;5053267;28;20209;-78
2023/05/11 12:08:37;;;;;;;0.68;0.68;;;23.10;99.90;;;;;;5053387;28;20220;-78
2023/05/11 12:11:04;;;;;;;0.70;0.70;;;23.10;99.90;;;;;;5052668;28;21211;-76
2023/05/11 12:13:32;;;;;;;0.80;0.73;;;23.00;99.90;;;;;;5051644;28;20251;-75
2023/05/11 12:16:12;;;;;;;0.60;0.60;;;23.00;99.90;;;;;;5051097;28;20213;-77
2023/05/11 12:18:41;;;;;;;0.65;0.60;;;23.10;99.90;;;;;;5046139;28;20208;-78
2023/05/11 12:21:21;;;;;;;0.70;0.70;;;23.10;99.90;;;;;;5052418;28;20772;-76
2023/05/11 12:23:56;;;;;;;0.98;0.80;;;23.20;99.90;;;;;;5032321;28;20198;-76
2023/05/11 12:26:25;;;;;;;0.68;0.60;;;23.20;99.90;;;;;;5048555;28;20242;-77
2023/05/11 12:29:09;;;;;;;0.90;0.80;;;23.20;99.90;;;;;;5047958;28;20206;-78
2023/05/11 12:31:40;;;;;;;3.72;0.70;;;23.30;99.90;;;;;;5052372;28;20217;-77
2023/05/11 12:34:16;;;;;;;1.00;0.80;;;23.30;99.90;;;;;;5044866;28;20210;-78
2023/05/11 12:36:45;;;;;;;0.90;0.73;;;23.40;99.90;;;;;;5052548;28;20705;-75
2023/05/11 12:39:22;;;;;;;0.75;0.60;;;23.70;99.90;;;;;;5053009;28;20198;-77
2023/05/11 12:41:51;;;;;;;0.77;0.77;;;23.70;99.90;;;;;;5051497;28;20272;-78
2023/05/11 12:44:21;;;;;;;1.30;1.20;;;23.80;99.90;;;;;;5052532;28;20221;-79
2023/05/11 12:46:48;;;;;;;1.05;0.63;;;23.70;99.90;;;;;;5052316;28;20605;-79
2023/05/11 12:49:20;;;;;;;1.48;0.70;;;23.80;99.90;;;;;;5051945;28;20205;-78
2023/05/11 12:52:01;;;;;;;1.42;0.60;;;23.90;99.90;;;;;;5052275;28;20204;-77
2023/05/11 12:54:30;;;;;;;0.65;0.65;;;23.90;99.90;;;;;;5049677;28;20295;-79
2023/05/11 12:56:57;;;;;;;0.60;0.60;;;23.90;99.90;;;;;;5034453;28;20262;-77
2023/05/11 12:59:25;;;;;;;1.98;0.70;;;24.00;99.90;;;;;;5052132;28;20275;-78
2023/05/11 13:01:54;;;;;;;1.27;0.95;;;24.00;99.90;;;;;;5052237;28;20239;-77
2023/05/11 13:04:29;;;;;;;1.30;0.52;;;24.10;99.90;;;;;;5052019;28;20201;-78
2023/05/11 13:06:56;;;;;;;0.88;0.70;;;24.10;99.90;;;;;;5050788;28;20208;-78
2023/05/11 13:09:26;;;;;;;1.55;0.70;;;23.90;99.90;;;;;;5052582;28;20283;-78
2023/05/11 13:12:19;;;;;;;0.75;0.68;;;23.80;99.90;;;;;;5052364;28;20637;-77
2023/05/11 13:14:48;;;;;;;0.90;0.70;;;23.70;99.90;;;;;;5050454;28;20221;-78
2023/05/11 13:17:35;;;;;;;1.83;1.60;;;23.70;99.90;;;;;;5052383;28;20209;-78
2023/05/11 13:20:18;;;;;;;2.08;1.60;;;23.50;99.90;;;;;;5051927;28;20205;-78
2023/05/11 13:22:47;;;;;;;2.00;1.60;;;23.30;99.90;;;;;;5047982;28;20283;-79
2023/05/11 13:25:15;;;;;;;2.35;1.63;;;23.10;99.90;;;;;;5055132;28;20327;-76
2023/05/11 13:27:42;;;;;;;2.55;1.90;;;23.10;99.90;;;;;;5051938;28;20209;-77
2023/05/11 13:30:10;;;;;;;2.05;1.80;;;22.90;99.90;;;;;;5052619;28;20225;-77
2023/05/11 13:32:37;;;;;;;2.63;1.60;;;22.70;99.90;;;;;;5051987;28;20508;-78
2023/05/11 13:35:05;;;;;;;1.98;1.50;;;22.50;99.90;;;;;;5051769;28;20576;-77